createdAt,value
2022-09-01T00:01:12.158Z,57.25
2022-09-01T00:04:18.214Z,57.54
2022-09-01T00:07:23.024Z,57.83
2022-09-01T00:10:28.049Z,57.35
2022-09-01T00:13:34.397Z,57.49
2022-09-01T00:16:40.813Z,57.62
2022-09-01T00:19:47.400Z,57.48
2022-09-01T00:22:52.844Z,57.25
2022-09-01T00:25:58.314Z,57.37
2022-09-01T00:28:57.537Z,57.44
2022-09-01T00:32:03.557Z,57.62
2022-09-01T00:35:09.189Z,57.95
2022-09-01T00:38:14.755Z,58.35
2022-09-01T00:41:20.399Z,58.66
2022-09-01T00:44:31.822Z,58.30
2022-09-01T00:47:36.231Z,58.34
2022-09-01T00:50:42.727Z,58.24
2022-09-01T00:53:48.266Z,58.45
2022-09-01T00:56:57.764Z,58.01
2022-09-01T01:00:06.376Z,57.86
2022-09-01T01:03:11.752Z,57.96
2022-09-01T01:06:20.552Z,58.20
2022-09-01T01:09:26.977Z,58.11
2022-09-01T01:12:34.683Z,57.87
2022-09-01T01:15:40.450Z,57.64
2022-09-01T01:18:47.038Z,57.50
2022-09-01T01:22:15.236Z,57.98
2022-09-01T01:25:21.590Z,58.38
2022-09-01T01:28:42.707Z,58.35
2022-09-01T01:31:48.245Z,57.73
2022-09-01T01:34:55.098Z,57.28
2022-09-01T01:38:01.944Z,58.00
2022-09-01T01:41:08.769Z,58.18
2022-09-01T01:44:15.284Z,58.01
2022-09-01T01:47:24.473Z,58.17
2022-09-01T01:50:33.415Z,58.66
2022-09-01T01:53:38.926Z,58.71
2022-09-01T01:56:46.334Z,59.30
2022-09-01T01:59:52.820Z,59.66
2022-09-01T02:03:02.493Z,59.29
2022-09-01T02:06:10.651Z,59.10
2022-09-01T02:09:15.789Z,59.51
2022-09-01T02:12:24.827Z,59.47
2022-09-01T02:15:30.758Z,59.22
2022-09-01T02:18:49.797Z,59.35
2022-09-01T02:21:57.687Z,59.06
2022-09-01T02:25:04.349Z,58.85
2022-09-01T02:28:11.102Z,58.74
2022-09-01T02:31:18.345Z,58.80
2022-09-01T02:34:25.117Z,58.57
2022-09-01T02:37:32.763Z,58.59
2022-09-01T02:40:39.598Z,58.44
2022-09-01T02:43:46.859Z,58.69
2022-09-01T02:46:54.397Z,58.66
2022-09-01T02:50:01.665Z,58.38
2022-09-01T02:53:08.316Z,58.25
2022-09-01T02:56:16.503Z,58.42
2022-09-01T02:59:23.008Z,58.49
2022-09-01T03:02:33.788Z,58.70
2022-09-01T03:05:45.238Z,58.49
2022-09-01T03:08:51.582Z,58.58
2022-09-01T03:12:00.978Z,58.47
2022-09-01T03:15:09.032Z,58.33
2022-09-01T03:18:14.897Z,58.14
2022-09-01T03:21:23.251Z,57.95
2022-09-01T03:24:31.803Z,57.53
2022-09-01T03:27:37.906Z,57.17
2022-09-01T03:30:47.837Z,57.27
2022-09-01T03:33:53.497Z,57.19
2022-09-01T03:37:00.709Z,57.84
2022-09-01T03:40:07.353Z,57.74
2022-09-01T03:43:13.972Z,57.48
2022-09-01T03:46:22.424Z,57.33
2022-09-01T03:49:30.040Z,57.59
2022-09-01T03:52:36.621Z,58.03
2022-09-01T03:55:38.447Z,57.26
2022-09-01T03:58:44.000Z,57.00
2022-09-01T04:01:50.572Z,57.34
2022-09-01T04:04:56.739Z,57.66
2022-09-01T04:08:03.246Z,57.68
2022-09-01T04:11:12.090Z,57.66
2022-09-01T04:14:19.857Z,57.60
2022-09-01T04:17:44.287Z,57.81
2022-09-01T04:20:50.663Z,57.47
2022-09-01T04:23:55.578Z,57.15
2022-09-01T04:27:01.095Z,56.67
2022-09-01T04:30:08.665Z,56.18
2022-09-01T04:33:17.170Z,56.13
2022-09-01T04:36:38.391Z,55.79
2022-09-01T04:39:45.980Z,55.93
2022-09-01T04:42:52.398Z,55.85
2022-09-01T04:45:59.843Z,55.14
2022-09-01T04:49:08.115Z,54.98
2022-09-01T04:52:15.490Z,53.98
2022-09-01T04:55:23.771Z,53.33
2022-09-01T04:58:32.182Z,52.73
2022-09-01T05:01:41.562Z,51.89
2022-09-01T05:04:49.614Z,52.04
2022-09-01T05:07:57.024Z,52.14
2022-09-01T05:11:04.793Z,51.41
2022-09-01T05:14:13.674Z,51.03
2022-09-01T05:17:15.369Z,50.67
2022-09-01T05:20:07.454Z,50.64
2022-09-01T05:23:12.026Z,50.02
2022-09-01T05:26:19.602Z,49.41
2022-09-01T05:29:26.194Z,48.48
2022-09-01T05:32:33.336Z,49.00
2022-09-01T05:35:38.807Z,49.99
2022-09-01T05:38:47.459Z,49.62
2022-09-01T05:41:56.870Z,49.65
2022-09-01T05:45:06.606Z,50.19
2022-09-01T05:48:13.002Z,50.45
2022-09-01T05:51:45.782Z,50.60
2022-09-01T05:54:49.826Z,50.85
2022-09-01T05:57:56.820Z,50.39
2022-09-01T06:01:03.531Z,50.19
2022-09-01T06:04:13.798Z,49.89
2022-09-01T06:07:25.347Z,49.88
2022-09-01T06:10:32.047Z,49.36
2022-09-01T06:13:39.865Z,48.94
2022-09-01T06:16:46.108Z,49.56
2022-09-01T06:19:53.739Z,49.47
2022-09-01T06:23:00.510Z,46.29
2022-09-01T06:26:08.050Z,45.09
2022-09-01T06:29:16.784Z,44.90
2022-09-01T06:32:24.272Z,44.56
2022-09-01T06:35:33.795Z,44.67
2022-09-01T06:38:42.083Z,44.29
2022-09-01T06:41:48.873Z,44.12
2022-09-01T06:44:51.359Z,45.55
2022-09-01T06:48:00.085Z,45.89
2022-09-01T06:51:22.035Z,45.55
2022-09-01T07:00:31.294Z,45.64
2022-09-01T07:03:36.824Z,49.04
2022-09-01T07:10:21.279Z,51.09
2022-09-01T07:13:31.057Z,51.27
2022-09-01T07:16:51.092Z,51.27
2022-09-01T07:19:48.850Z,50.71
2022-09-01T07:23:04.447Z,50.28
2022-09-01T07:26:06.045Z,49.32
2022-09-01T07:29:07.189Z,47.81
2022-09-01T07:35:26.868Z,46.80
2022-09-01T07:42:57.775Z,45.12
2022-09-01T07:45:31.852Z,45.88
2022-09-01T07:51:43.591Z,44.55
2022-09-01T07:54:50.569Z,43.45
2022-09-01T07:57:57.241Z,43.17
2022-09-01T08:01:06.258Z,42.83
2022-09-01T08:04:13.849Z,41.95
2022-09-01T08:07:18.745Z,41.67
2022-09-01T08:10:25.655Z,41.87
2022-09-01T08:13:37.228Z,41.36
2022-09-01T08:16:51.915Z,40.11
2022-09-01T08:19:50.151Z,39.00
2022-09-01T08:23:05.442Z,38.66
2022-09-01T08:26:11.032Z,39.08
2022-09-01T08:29:16.167Z,39.04
2022-09-01T08:32:21.513Z,37.93
2022-09-01T08:35:27.636Z,37.87
2022-09-01T08:38:35.035Z,38.00
2022-09-01T08:42:14.020Z,38.60
2022-09-01T08:45:48.552Z,38.93
2022-09-01T08:52:53.026Z,38.75
2022-09-01T08:56:01.244Z,39.50
2022-09-01T08:59:07.909Z,38.68
2022-09-01T09:03:15.967Z,38.69
2022-09-01T09:07:07.129Z,38.79
2022-09-01T09:10:26.918Z,39.15
2022-09-01T09:13:57.926Z,39.18
2022-09-01T09:17:00.763Z,39.47
2022-09-01T09:20:05.336Z,39.46
2022-09-01T09:23:11.126Z,38.91
2022-09-01T09:26:22.252Z,38.60
2022-09-01T09:29:23.794Z,38.65
2022-09-01T09:32:50.377Z,39.30
2022-09-01T09:35:52.944Z,39.28
2022-09-01T09:38:58.961Z,39.46
2022-09-01T09:42:20.201Z,39.76
2022-09-01T09:45:45.656Z,39.18
2022-09-01T09:48:51.365Z,39.63
2022-09-01T09:51:58.769Z,39.66
2022-09-01T09:55:20.108Z,39.48
2022-09-01T09:58:27.896Z,39.68
2022-09-01T10:01:43.944Z,38.99
2022-09-01T10:04:55.889Z,38.23
2022-09-01T10:08:01.483Z,38.40
2022-09-01T10:11:06.796Z,38.64
2022-09-01T10:14:23.585Z,37.87
2022-09-01T10:17:31.767Z,37.75
2022-09-01T10:20:41.274Z,37.42
2022-09-01T10:23:48.910Z,37.04
2022-09-01T10:26:56.476Z,36.34
2022-09-01T10:30:20.099Z,36.58
2022-09-01T10:33:25.992Z,36.80
2022-09-01T10:36:32.070Z,37.15
2022-09-01T10:39:42.994Z,36.87
2022-09-01T10:42:45.295Z,36.25
2022-09-01T10:45:57.883Z,36.35
2022-09-01T10:49:04.069Z,36.20
2022-09-01T10:52:14.137Z,36.88
2022-09-01T10:55:24.942Z,37.11
2022-09-01T11:02:34.954Z,37.31
2022-09-01T11:05:24.685Z,37.26
2022-09-01T11:08:46.698Z,37.25
2022-09-01T11:12:13.136Z,37.26
2022-09-01T11:15:31.729Z,37.08
2022-09-01T11:18:44.639Z,37.30
2022-09-01T11:21:50.330Z,37.30
2022-09-01T11:25:11.008Z,36.68
2022-09-01T11:28:11.792Z,36.58
2022-09-01T11:31:37.898Z,35.64
2022-09-01T11:34:43.889Z,35.74
2022-09-01T11:37:52.802Z,35.65
2022-09-01T11:41:02.284Z,35.76
2022-09-01T11:44:11.456Z,35.63
2022-09-01T11:47:22.696Z,35.31
2022-09-01T11:50:35.087Z,35.67
2022-09-01T11:53:40.689Z,35.88
2022-09-01T11:56:47.423Z,35.81
2022-09-01T11:59:53.152Z,35.62
2022-09-01T12:03:15.496Z,35.77
2022-09-01T12:06:22.472Z,36.04
2022-09-01T12:09:27.307Z,35.64
2022-09-01T12:12:49.988Z,35.42
2022-09-01T12:16:17.110Z,35.59
2022-09-01T12:19:07.197Z,35.22
2022-09-01T12:22:21.745Z,34.93
2022-09-01T12:25:39.664Z,34.79
2022-09-01T12:28:47.844Z,34.48
2022-09-01T12:31:56.829Z,34.56
2022-09-01T12:35:15.235Z,34.67
2022-09-01T12:38:38.788Z,34.69
2022-09-01T12:41:54.063Z,35.23
2022-09-01T12:45:18.084Z,35.01
2022-09-01T12:48:19.711Z,34.73
2022-09-01T12:51:37.810Z,34.67
2022-09-01T12:54:45.862Z,34.68
2022-09-01T12:57:58.363Z,34.52
2022-09-01T13:01:20.925Z,34.66
2022-09-01T13:04:40.648Z,34.45
2022-09-01T13:07:47.064Z,34.36
2022-09-01T13:11:01.079Z,34.52
2022-09-01T13:14:08.044Z,33.55
2022-09-01T13:17:14.673Z,33.21
2022-09-01T13:20:22.282Z,32.90
2022-09-01T13:23:28.752Z,33.13
2022-09-01T13:26:34.204Z,33.50
2022-09-01T13:29:39.491Z,33.16
2022-09-01T13:33:18.889Z,33.42
2022-09-01T13:35:52.898Z,32.94
2022-09-01T13:38:58.110Z,32.98
2022-09-01T13:42:03.840Z,32.59
2022-09-01T13:45:08.476Z,32.97
2022-09-01T13:48:15.743Z,32.79
2022-09-01T13:51:21.713Z,32.68
2022-09-01T13:54:27.372Z,32.99
2022-09-01T13:57:36.289Z,32.82
2022-09-01T14:00:43.271Z,32.50
2022-09-01T14:03:52.092Z,32.54
2022-09-01T14:06:58.582Z,32.19
2022-09-01T14:10:03.058Z,32.09
2022-09-01T14:13:08.578Z,32.12
2022-09-01T14:16:15.993Z,31.79
2022-09-01T14:19:20.894Z,31.55
2022-09-01T14:22:26.499Z,31.68
2022-09-01T14:25:34.090Z,31.20
2022-09-01T14:28:39.969Z,31.44
2022-09-01T14:31:45.296Z,31.73
2022-09-01T14:34:50.401Z,31.27
2022-09-01T14:37:55.226Z,31.30
2022-09-01T14:41:03.995Z,31.47
2022-09-01T14:44:10.042Z,31.44
2022-09-01T14:47:19.796Z,31.97
2022-09-01T14:50:23.118Z,31.67
2022-09-01T14:53:30.847Z,31.40
2022-09-01T14:56:37.564Z,31.74
2022-09-01T14:59:41.894Z,31.86
2022-09-01T15:02:47.861Z,31.90
2022-09-01T15:05:52.788Z,31.91
2022-09-01T15:08:59.816Z,31.86
2022-09-01T15:12:04.531Z,32.09
2022-09-01T15:15:12.163Z,32.29
2022-09-01T15:18:19.699Z,32.24
2022-09-01T15:21:35.442Z,32.11
2022-09-01T15:24:40.649Z,32.28
2022-09-01T15:27:46.289Z,32.29
2022-09-01T15:30:54.271Z,32.28
2022-09-01T15:34:02.198Z,32.38
2022-09-01T15:37:08.151Z,32.56
2022-09-01T15:40:14.775Z,32.56
2022-09-01T15:43:21.546Z,32.59
2022-09-01T15:46:27.169Z,32.62
2022-09-01T15:49:32.401Z,32.74
2022-09-01T15:52:38.402Z,32.90
2022-09-01T15:55:51.456Z,33.14
2022-09-01T15:59:01.506Z,33.39
2022-09-01T16:02:04.854Z,33.36
2022-09-01T16:05:12.809Z,33.61
2022-09-01T16:08:20.154Z,33.82
2022-09-01T16:11:24.392Z,33.91
2022-09-01T16:14:30.541Z,34.04
2022-09-01T16:17:58.125Z,34.21
2022-09-01T16:21:17.740Z,34.37
2022-09-01T16:24:25.352Z,34.66
2022-09-01T16:27:33.714Z,34.73
2022-09-01T16:30:42.576Z,34.71
2022-09-01T16:33:48.375Z,34.71
2022-09-01T16:37:29.512Z,34.69
2022-09-01T16:41:16.592Z,34.78
2022-09-01T16:44:43.705Z,34.84
2022-09-01T16:47:54.997Z,35.12
2022-09-01T16:51:13.757Z,35.01
2022-09-01T16:54:38.590Z,34.98
2022-09-01T16:58:05.800Z,34.86
2022-09-01T17:01:18.786Z,34.95
2022-09-01T17:04:46.802Z,34.94
2022-09-01T17:08:17.479Z,34.95
2022-09-01T17:11:26.260Z,34.90
2022-09-01T17:14:37.208Z,35.13
2022-09-01T17:17:54.708Z,34.95
2022-09-01T17:21:12.316Z,35.01
2022-09-01T17:24:35.751Z,34.92
2022-09-01T17:28:06.661Z,34.93
2022-09-01T17:31:25.359Z,35.11
2022-09-01T17:34:58.906Z,35.36
2022-09-01T17:38:44.518Z,35.42
2022-09-01T17:42:14.018Z,35.29
2022-09-01T17:45:37.195Z,35.43
2022-09-01T17:49:12.225Z,35.62
2022-09-01T17:52:30.161Z,35.75
2022-09-01T17:55:52.836Z,35.88
2022-09-01T17:59:36.990Z,35.96
2022-09-01T18:03:09.772Z,36.15
2022-09-01T18:06:23.313Z,36.21
2022-09-01T18:09:32.476Z,36.42
2022-09-01T18:12:43.600Z,36.48
2022-09-01T18:16:06.497Z,36.63
2022-09-01T18:19:18.011Z,36.86
2022-09-01T18:22:36.016Z,36.94
2022-09-01T18:25:45.686Z,36.97
2022-09-01T18:28:51.898Z,37.19
2022-09-01T18:32:11.022Z,37.17
2022-09-01T18:35:31.919Z,37.05
2022-09-01T18:38:59.145Z,37.35
2022-09-01T18:42:30.558Z,37.42
2022-09-01T18:45:47.086Z,37.42
2022-09-01T18:49:16.074Z,37.60
2022-09-01T18:52:44.942Z,37.25
2022-09-01T18:56:18.004Z,37.43
2022-09-01T18:59:37.547Z,37.49
2022-09-01T19:03:17.441Z,37.42
2022-09-01T19:06:52.106Z,37.39
2022-09-01T19:10:44.300Z,37.54
2022-09-01T19:14:07.171Z,37.63
2022-09-01T19:17:31.865Z,37.78
2022-09-01T19:20:48.670Z,37.63
2022-09-01T19:24:14.860Z,37.58
2022-09-01T19:27:28.942Z,37.58
2022-09-01T19:30:36.118Z,37.70
2022-09-01T19:33:49.247Z,37.81
2022-09-01T19:37:04.438Z,38.07
2022-09-01T19:40:09.433Z,38.18
2022-09-01T19:43:25.450Z,38.16
2022-09-01T19:46:55.252Z,37.88
2022-09-01T19:50:18.239Z,37.78
2022-09-01T19:53:44.573Z,37.84
2022-09-01T19:57:13.835Z,37.86
2022-09-01T20:00:33.514Z,37.86
2022-09-01T20:03:53.051Z,38.00
2022-09-01T20:07:05.097Z,38.14
2022-09-01T20:10:33.636Z,38.15
2022-09-01T20:14:14.241Z,37.98
2022-09-01T20:17:20.904Z,37.72
2022-09-01T20:20:30.972Z,37.66
2022-09-01T20:23:59.073Z,37.53
2022-09-01T20:27:08.698Z,37.66
2022-09-01T20:30:24.125Z,37.76
2022-09-01T20:33:33.049Z,37.75
2022-09-01T20:36:43.980Z,37.76
2022-09-01T20:40:14.461Z,37.81
2022-09-01T20:43:32.270Z,37.84
2022-09-01T20:46:37.675Z,37.53
2022-09-01T20:49:45.212Z,37.33
2022-09-01T20:53:18.488Z,37.50
2022-09-01T20:56:53.161Z,37.50
2022-09-01T21:00:10.052Z,37.42
2022-09-01T21:03:54.494Z,37.13
2022-09-01T21:07:29.290Z,36.74
2022-09-01T21:10:49.044Z,36.29
2022-09-01T21:14:14.926Z,36.32
2022-09-01T21:17:42.012Z,36.24
2022-09-01T21:21:13.195Z,36.49
2022-09-01T21:24:19.922Z,36.44
2022-09-01T21:27:40.307Z,36.09
2022-09-01T21:30:46.607Z,36.11
2022-09-01T21:33:51.134Z,36.21
2022-09-01T21:36:57.961Z,36.35
2022-09-01T21:40:05.189Z,36.38
2022-09-01T21:43:20.898Z,36.66
2022-09-01T21:46:27.517Z,36.65
2022-09-01T21:49:33.236Z,36.72
2022-09-01T21:52:38.782Z,37.14
2022-09-01T21:55:45.374Z,37.43
2022-09-01T21:58:53.901Z,37.59
2022-09-01T22:01:59.381Z,37.73
2022-09-01T22:05:05.683Z,37.91
2022-09-01T22:08:05.773Z,38.29
2022-09-01T22:11:12.600Z,38.64
2022-09-01T22:14:19.442Z,39.17
2022-09-01T22:17:24.834Z,39.60
2022-09-01T22:20:35.599Z,39.76
2022-09-01T22:23:41.358Z,39.72
2022-09-01T22:26:47.487Z,39.84
2022-09-01T22:29:54.119Z,39.83
2022-09-01T22:33:00.156Z,39.94
2022-09-01T22:36:08.115Z,40.17
2022-09-01T22:39:13.052Z,39.91
2022-09-01T22:42:18.582Z,40.21
2022-09-01T22:45:25.886Z,40.54
2022-09-01T22:48:32.610Z,40.32
2022-09-01T22:51:37.991Z,40.58
2022-09-01T22:54:44.770Z,40.88
2022-09-01T22:57:50.289Z,41.04
2022-09-01T23:01:03.063Z,40.98
2022-09-01T23:04:11.717Z,40.88
2022-09-01T23:07:19.441Z,41.08
2022-09-01T23:10:25.311Z,41.56
2022-09-01T23:13:34.231Z,41.69
2022-09-01T23:16:40.581Z,41.77
2022-09-01T23:19:46.134Z,41.90
2022-09-01T23:22:51.975Z,42.09
2022-09-01T23:25:57.632Z,42.07
2022-09-01T23:29:03.496Z,42.17
2022-09-01T23:32:02.606Z,42.39
2022-09-01T23:35:08.527Z,43.08
2022-09-01T23:38:13.592Z,43.32
2022-09-01T23:41:26.092Z,43.72
2022-09-01T23:44:30.821Z,43.84
2022-09-01T23:47:38.065Z,44.37
2022-09-01T23:50:43.778Z,44.24
2022-09-01T23:53:49.712Z,44.32
2022-09-01T23:56:55.669Z,44.31
